sensor_id;sensor_type;location;lat;lon;timestamp;P1;durP1;ratioP1;P2;durP2;ratioP2
317;SDS011;146;53.448;10.228;2023-05-16T00:00:50;5.17;;;4.60;;
317;SDS011;146;53.448;10.228;2023-05-16T00:03:18;4.27;;;3.87;;
317;SDS011;146;53.448;10.228;2023-05-16T00:05:48;4.77;;;4.27;;
317;SDS011;146;53.448;10.228;2023-05-16T00:08:16;4.63;;;3.90;;
317;SDS011;146;53.448;10.228;2023-05-16T00:10:45;3.60;;;3.30;;
317;SDS011;146;53.448;10.228;2023-05-16T00:13:12;4.10;;;3.10;;
317;SDS011;146;53.448;10.228;2023-05-16T00:15:39;4.60;;;3.30;;
317;SDS011;146;53.448;10.228;2023-05-16T00:18:08;4.70;;;4.30;;
317;SDS011;146;53.448;10.228;2023-05-16T00:20:38;4.30;;;3.90;;
317;SDS011;146;53.448;10.228;2023-05-16T00:23:19;3.90;;;3.60;;
317;SDS011;146;53.448;10.228;2023-05-16T00:25:49;4.33;;;3.93;;
317;SDS011;146;53.448;10.228;2023-05-16T00:28:25;3.60;;;3.30;;
317;SDS011;146;53.448;10.228;2023-05-16T00:30:54;3.97;;;3.50;;
317;SDS011;146;53.448;10.228;2023-05-16T00:33:21;3.93;;;3.20;;
317;SDS011;146;53.448;10.228;2023-05-16T00:35:50;3.13;;;2.90;;
317;SDS011;146;53.448;10.228;2023-05-16T00:38:18;2.87;;;2.63;;
317;SDS011;146;53.448;10.228;2023-05-16T00:40:46;3.20;;;2.90;;
317;SDS011;146;53.448;10.228;2023-05-16T00:43:15;3.83;;;3.33;;
317;SDS011;146;53.448;10.228;2023-05-16T00:45:45;2.87;;;2.67;;
317;SDS011;146;53.448;10.228;2023-05-16T00:48:12;4.63;;;3.30;;
317;SDS011;146;53.448;10.228;2023-05-16T00:50:40;3.83;;;3.50;;
317;SDS011;146;53.448;10.228;2023-05-16T00:53:13;4.20;;;3.80;;
317;SDS011;146;53.448;10.228;2023-05-16T00:55:45;4.13;;;3.83;;
317;SDS011;146;53.448;10.228;2023-05-16T00:58:12;4.70;;;4.10;;
317;SDS011;146;53.448;10.228;2023-05-16T01:00:42;4.30;;;4.00;;
317;SDS011;146;53.448;10.228;2023-05-16T01:03:14;5.27;;;4.87;;
317;SDS011;146;53.448;10.228;2023-05-16T01:05:46;4.90;;;4.43;;
317;SDS011;146;53.448;10.228;2023-05-16T01:08:14;4.90;;;4.50;;
317;SDS011;146;53.448;10.228;2023-05-16T01:10:43;4.50;;;3.60;;
317;SDS011;146;53.448;10.228;2023-05-16T01:13:30;4.20;;;3.80;;
317;SDS011;146;53.448;10.228;2023-05-16T01:16:08;3.67;;;3.33;;
317;SDS011;146;53.448;10.228;2023-05-16T01:18:43;3.77;;;3.47;;
317;SDS011;146;53.448;10.228;2023-05-16T01:21:23;4.57;;;4.13;;
317;SDS011;146;53.448;10.228;2023-05-16T01:24:08;3.53;;;3.23;;
317;SDS011;146;53.448;10.228;2023-05-16T01:26:55;3.27;;;3.00;;
317;SDS011;146;53.448;10.228;2023-05-16T01:29:25;3.13;;;2.93;;
317;SDS011;146;53.448;10.228;2023-05-16T01:31:52;3.47;;;3.27;;
317;SDS011;146;53.448;10.228;2023-05-16T01:34:19;3.60;;;3.30;;
317;SDS011;146;53.448;10.228;2023-05-16T01:36:56;3.43;;;3.13;;
317;SDS011;146;53.448;10.228;2023-05-16T01:39:40;3.30;;;3.00;;
317;SDS011;146;53.448;10.228;2023-05-16T01:42:14;3.30;;;3.00;;
317;SDS011;146;53.448;10.228;2023-05-16T01:44:42;4.10;;;3.67;;
317;SDS011;146;53.448;10.228;2023-05-16T01:47:13;7.03;;;3.57;;
317;SDS011;146;53.448;10.228;2023-05-16T01:49:42;3.10;;;2.90;;
317;SDS011;146;53.448;10.228;2023-05-16T01:52:18;2.90;;;2.70;;
317;SDS011;146;53.448;10.228;2023-05-16T01:54:51;2.73;;;2.57;;
317;SDS011;146;53.448;10.228;2023-05-16T01:57:20;3.33;;;3.03;;
317;SDS011;146;53.448;10.228;2023-05-16T01:59:57;3.27;;;3.07;;
317;SDS011;146;53.448;10.228;2023-05-16T02:02:24;4.10;;;2.87;;
317;SDS011;146;53.448;10.228;2023-05-16T02:04:50;3.33;;;3.03;;
317;SDS011;146;53.448;10.228;2023-05-16T02:07:17;5.77;;;4.10;;
317;SDS011;146;53.448;10.228;2023-05-16T02:09:45;5.37;;;3.20;;
317;SDS011;146;53.448;10.228;2023-05-16T02:12:17;4.07;;;3.50;;
317;SDS011;146;53.448;10.228;2023-05-16T02:14:46;3.60;;;3.30;;
317;SDS011;146;53.448;10.228;2023-05-16T02:17:16;4.10;;;3.70;;
317;SDS011;146;53.448;10.228;2023-05-16T02:19:49;6.50;;;3.07;;
317;SDS011;146;53.448;10.228;2023-05-16T02:22:20;8.50;;;3.87;;
317;SDS011;146;53.448;10.228;2023-05-16T02:24:47;4.97;;;3.50;;
317;SDS011;146;53.448;10.228;2023-05-16T02:27:23;3.03;;;2.60;;
317;SDS011;146;53.448;10.228;2023-05-16T02:29:51;6.90;;;3.20;;
317;SDS011;146;53.448;10.228;2023-05-16T02:32:18;5.50;;;3.23;;
317;SDS011;146;53.448;10.228;2023-05-16T02:34:51;4.00;;;3.40;;
317;SDS011;146;53.448;10.228;2023-05-16T02:37:18;4.50;;;3.63;;
317;SDS011;146;53.448;10.228;2023-05-16T02:39:44;5.17;;;3.63;;
317;SDS011;146;53.448;10.228;2023-05-16T02:42:11;3.87;;;2.70;;
317;SDS011;146;53.448;10.228;2023-05-16T02:44:41;4.40;;;3.00;;
317;SDS011;146;53.448;10.228;2023-05-16T02:47:11;3.43;;;2.83;;
317;SDS011;146;53.448;10.228;2023-05-16T02:49:41;3.87;;;2.63;;
317;SDS011;146;53.448;10.228;2023-05-16T02:52:08;3.07;;;2.50;;
317;SDS011;146;53.448;10.228;2023-05-16T02:54:43;2.53;;;2.33;;
317;SDS011;146;53.448;10.228;2023-05-16T02:57:10;4.63;;;2.47;;
317;SDS011;146;53.448;10.228;2023-05-16T02:59:46;3.97;;;2.27;;
317;SDS011;146;53.448;10.228;2023-05-16T03:02:15;3.63;;;2.40;;
317;SDS011;146;53.448;10.228;2023-05-16T03:04:44;4.10;;;2.50;;
317;SDS011;146;53.448;10.228;2023-05-16T03:07:11;8.97;;;2.30;;
317;SDS011;146;53.448;10.228;2023-05-16T03:09:48;3.03;;;2.20;;
317;SDS011;146;53.448;10.228;2023-05-16T03:12:24;3.60;;;2.10;;
317;SDS011;146;53.448;10.228;2023-05-16T03:14:53;2.70;;;1.90;;
317;SDS011;146;53.448;10.228;2023-05-16T03:17:22;5.63;;;2.67;;
317;SDS011;146;53.448;10.228;2023-05-16T03:19:48;5.37;;;2.27;;
317;SDS011;146;53.448;10.228;2023-05-16T03:22:16;4.80;;;2.37;;
317;SDS011;146;53.448;10.228;2023-05-16T03:24:47;3.70;;;2.20;;
317;SDS011;146;53.448;10.228;2023-05-16T03:27:17;5.97;;;2.60;;
317;SDS011;146;53.448;10.228;2023-05-16T03:29:47;8.73;;;2.97;;
317;SDS011;146;53.448;10.228;2023-05-16T03:32:14;7.10;;;4.13;;
317;SDS011;146;53.448;10.228;2023-05-16T03:34:42;6.20;;;3.50;;
317;SDS011;146;53.448;10.228;2023-05-16T03:37:08;9.30;;;3.20;;
317;SDS011;146;53.448;10.228;2023-05-16T03:39:38;3.50;;;2.93;;
317;SDS011;146;53.448;10.228;2023-05-16T03:42:11;8.07;;;4.63;;
317;SDS011;146;53.448;10.228;2023-05-16T03:44:45;6.63;;;2.73;;
317;SDS011;146;53.448;10.228;2023-05-16T03:47:14;4.80;;;2.40;;
317;SDS011;146;53.448;10.228;2023-05-16T03:49:43;8.63;;;2.70;;
317;SDS011;146;53.448;10.228;2023-05-16T03:52:09;5.47;;;2.97;;
317;SDS011;146;53.448;10.228;2023-05-16T03:54:36;8.37;;;2.07;;
317;SDS011;146;53.448;10.228;2023-05-16T03:57:06;5.73;;;1.87;;
317;SDS011;146;53.448;10.228;2023-05-16T03:59:39;4.80;;;2.57;;
317;SDS011;146;53.448;10.228;2023-05-16T04:02:08;4.97;;;2.00;;
317;SDS011;146;53.448;10.228;2023-05-16T04:04:35;6.37;;;2.37;;
317;SDS011;146;53.448;10.228;2023-05-16T04:07:03;4.43;;;1.80;;
317;SDS011;146;53.448;10.228;2023-05-16T04:09:37;3.97;;;2.00;;
317;SDS011;146;53.448;10.228;2023-05-16T04:12:13;10.13;;;2.53;;
317;SDS011;146;53.448;10.228;2023-05-16T04:14:41;12.33;;;2.80;;
317;SDS011;146;53.448;10.228;2023-05-16T04:17:14;6.27;;;1.83;;
317;SDS011;146;53.448;10.228;2023-05-16T04:19:41;5.57;;;1.90;;
317;SDS011;146;53.448;10.228;2023-05-16T04:22:12;3.70;;;2.17;;
317;SDS011;146;53.448;10.228;2023-05-16T04:24:39;2.77;;;2.37;;
317;SDS011;146;53.448;10.228;2023-05-16T04:27:06;7.53;;;2.50;;
317;SDS011;146;53.448;10.228;2023-05-16T04:29:41;3.07;;;2.33;;
317;SDS011;146;53.448;10.228;2023-05-16T04:32:08;5.90;;;2.23;;
317;SDS011;146;53.448;10.228;2023-05-16T04:34:41;9.90;;;3.20;;
317;SDS011;146;53.448;10.228;2023-05-16T04:37:10;9.07;;;2.70;;
317;SDS011;146;53.448;10.228;2023-05-16T04:39:38;3.90;;;2.23;;
317;SDS011;146;53.448;10.228;2023-05-16T04:42:08;6.57;;;2.70;;
317;SDS011;146;53.448;10.228;2023-05-16T04:44:34;5.43;;;2.50;;
317;SDS011;146;53.448;10.228;2023-05-16T04:47:01;4.83;;;2.40;;
317;SDS011;146;53.448;10.228;2023-05-16T04:49:28;8.90;;;3.40;;
317;SDS011;146;53.448;10.228;2023-05-16T04:51:55;5.37;;;1.83;;
317;SDS011;146;53.448;10.228;2023-05-16T04:54:33;10.93;;;2.77;;
317;SDS011;146;53.448;10.228;2023-05-16T04:57:12;6.97;;;2.80;;
317;SDS011;146;53.448;10.228;2023-05-16T04:59:39;9.20;;;2.47;;
317;SDS011;146;53.448;10.228;2023-05-16T05:02:12;9.27;;;2.37;;
317;SDS011;146;53.448;10.228;2023-05-16T05:04:38;8.60;;;2.03;;
317;SDS011;146;53.448;10.228;2023-05-16T05:07:11;8.63;;;1.73;;
317;SDS011;146;53.448;10.228;2023-05-16T05:09:43;13.03;;;2.43;;
317;SDS011;146;53.448;10.228;2023-05-16T05:12:16;5.37;;;2.37;;
317;SDS011;146;53.448;10.228;2023-05-16T05:14:43;3.63;;;2.00;;
317;SDS011;146;53.448;10.228;2023-05-16T05:17:11;7.23;;;2.07;;
317;SDS011;146;53.448;10.228;2023-05-16T05:19:47;1.73;;;1.60;;
317;SDS011;146;53.448;10.228;2023-05-16T05:22:14;5.43;;;2.07;;
317;SDS011;146;53.448;10.228;2023-05-16T05:24:50;7.13;;;2.10;;
317;SDS011;146;53.448;10.228;2023-05-16T05:27:23;5.63;;;3.30;;
317;SDS011;146;53.448;10.228;2023-05-16T05:29:51;4.57;;;1.80;;
317;SDS011;146;53.448;10.228;2023-05-16T05:32:21;4.30;;;1.70;;
317;SDS011;146;53.448;10.228;2023-05-16T05:34:48;3.10;;;1.70;;
317;SDS011;146;53.448;10.228;2023-05-16T05:37:17;2.60;;;1.63;;
317;SDS011;146;53.448;10.228;2023-05-16T05:39:46;6.57;;;1.90;;
317;SDS011;146;53.448;10.228;2023-05-16T05:42:17;6.93;;;1.87;;
317;SDS011;146;53.448;10.228;2023-05-16T05:44:44;4.50;;;1.70;;
317;SDS011;146;53.448;10.228;2023-05-16T05:47:21;5.33;;;1.77;;
317;SDS011;146;53.448;10.228;2023-05-16T05:49:51;6.43;;;2.07;;
317;SDS011;146;53.448;10.228;2023-05-16T05:52:21;5.53;;;2.30;;
317;SDS011;146;53.448;10.228;2023-05-16T05:54:51;5.63;;;1.70;;
317;SDS011;146;53.448;10.228;2023-05-16T05:57:23;5.40;;;2.43;;
317;SDS011;146;53.448;10.228;2023-05-16T05:59:54;3.30;;;2.53;;
317;SDS011;146;53.448;10.228;2023-05-16T06:02:26;5.80;;;1.60;;
317;SDS011;146;53.448;10.228;2023-05-16T06:04:53;7.80;;;2.50;;
317;SDS011;146;53.448;10.228;2023-05-16T06:07:23;5.63;;;2.20;;
317;SDS011;146;53.448;10.228;2023-05-16T06:09:49;3.80;;;1.93;;
317;SDS011;146;53.448;10.228;2023-05-16T06:12:19;9.93;;;2.03;;
317;SDS011;146;53.448;10.228;2023-05-16T06:14:47;8.07;;;2.47;;
317;SDS011;146;53.448;10.228;2023-05-16T06:17:20;7.77;;;1.83;;
317;SDS011;146;53.448;10.228;2023-05-16T06:19:47;4.03;;;1.87;;
317;SDS011;146;53.448;10.228;2023-05-16T06:22:14;5.77;;;2.00;;
317;SDS011;146;53.448;10.228;2023-05-16T06:24:47;10.23;;;2.63;;
317;SDS011;146;53.448;10.228;2023-05-16T06:27:13;7.70;;;1.70;;
317;SDS011;146;53.448;10.228;2023-05-16T06:29:51;5.67;;;2.30;;
317;SDS011;146;53.448;10.228;2023-05-16T06:32:24;4.70;;;1.43;;
317;SDS011;146;53.448;10.228;2023-05-16T06:34:51;6.30;;;3.30;;
317;SDS011;146;53.448;10.228;2023-05-16T06:37:24;3.13;;;1.30;;
317;SDS011;146;53.448;10.228;2023-05-16T06:39:51;2.97;;;1.40;;
317;SDS011;146;53.448;10.228;2023-05-16T06:42:18;3.57;;;1.40;;
317;SDS011;146;53.448;10.228;2023-05-16T06:44:45;4.70;;;1.70;;
317;SDS011;146;53.448;10.228;2023-05-16T06:47:22;2.83;;;1.43;;
317;SDS011;146;53.448;10.228;2023-05-16T06:49:49;4.27;;;1.73;;
317;SDS011;146;53.448;10.228;2023-05-16T06:52:22;2.00;;;1.50;;
317;SDS011;146;53.448;10.228;2023-05-16T06:54:54;4.60;;;1.60;;
317;SDS011;146;53.448;10.228;2023-05-16T06:57:24;5.03;;;1.80;;
317;SDS011;146;53.448;10.228;2023-05-16T06:59:51;7.40;;;3.03;;
317;SDS011;146;53.448;10.228;2023-05-16T07:02:27;2.57;;;2.03;;
317;SDS011;146;53.448;10.228;2023-05-16T07:04:54;8.43;;;2.40;;
317;SDS011;146;53.448;10.228;2023-05-16T07:07:24;4.50;;;2.30;;
317;SDS011;146;53.448;10.228;2023-05-16T07:09:50;5.93;;;3.27;;
317;SDS011;146;53.448;10.228;2023-05-16T07:12:25;7.33;;;1.60;;
317;SDS011;146;53.448;10.228;2023-05-16T07:14:52;2.70;;;1.63;;
317;SDS011;146;53.448;10.228;2023-05-16T07:17:23;6.67;;;1.30;;
317;SDS011;146;53.448;10.228;2023-05-16T07:19:50;4.60;;;1.57;;
317;SDS011;146;53.448;10.228;2023-05-16T07:22:20;4.93;;;1.97;;
317;SDS011;146;53.448;10.228;2023-05-16T07:24:47;6.80;;;1.10;;
317;SDS011;146;53.448;10.228;2023-05-16T07:27:14;7.53;;;1.53;;
317;SDS011;146;53.448;10.228;2023-05-16T07:29:44;3.30;;;1.20;;
317;SDS011;146;53.448;10.228;2023-05-16T07:32:13;6.20;;;1.50;;
317;SDS011;146;53.448;10.228;2023-05-16T07:34:41;2.50;;;1.30;;
317;SDS011;146;53.448;10.228;2023-05-16T07:37:08;4.30;;;1.40;;
317;SDS011;146;53.448;10.228;2023-05-16T07:39:38;3.10;;;1.10;;
317;SDS011;146;53.448;10.228;2023-05-16T07:42:05;4.70;;;1.70;;
317;SDS011;146;53.448;10.228;2023-05-16T07:44:42;2.83;;;1.33;;
317;SDS011;146;53.448;10.228;2023-05-16T07:47:09;2.93;;;1.10;;
317;SDS011;146;53.448;10.228;2023-05-16T07:49:36;6.13;;;1.17;;
317;SDS011;146;53.448;10.228;2023-05-16T07:52:07;2.20;;;1.13;;
317;SDS011;146;53.448;10.228;2023-05-16T07:54:39;3.60;;;1.53;;
317;SDS011;146;53.448;10.228;2023-05-16T07:57:05;4.00;;;1.47;;
317;SDS011;146;53.448;10.228;2023-05-16T07:59:38;2.50;;;1.10;;
317;SDS011;146;53.448;10.228;2023-05-16T08:02:11;5.33;;;1.13;;
317;SDS011;146;53.448;10.228;2023-05-16T08:04:43;3.37;;;1.20;;
317;SDS011;146;53.448;10.228;2023-05-16T08:07:17;3.53;;;1.30;;
317;SDS011;146;53.448;10.228;2023-05-16T08:09:44;1.70;;;1.27;;
317;SDS011;146;53.448;10.228;2023-05-16T08:12:25;3.90;;;1.17;;
317;SDS011;146;53.448;10.228;2023-05-16T08:14:52;3.63;;;1.43;;
317;SDS011;146;53.448;10.228;2023-05-16T08:17:19;3.73;;;1.73;;
317;SDS011;146;53.448;10.228;2023-05-16T08:19:45;3.17;;;1.30;;
317;SDS011;146;53.448;10.228;2023-05-16T08:22:25;4.37;;;1.43;;
317;SDS011;146;53.448;10.228;2023-05-16T08:24:55;5.23;;;1.77;;
317;SDS011;146;53.448;10.228;2023-05-16T08:27:22;8.87;;;1.43;;
317;SDS011;146;53.448;10.228;2023-05-16T08:29:49;2.47;;;1.30;;
317;SDS011;146;53.448;10.228;2023-05-16T08:32:16;5.60;;;1.30;;
317;SDS011;146;53.448;10.228;2023-05-16T08:34:58;3.17;;;1.20;;
317;SDS011;146;53.448;10.228;2023-05-16T08:37:27;1.83;;;1.30;;
317;SDS011;146;53.448;10.228;2023-05-16T08:39:53;2.60;;;1.10;;
317;SDS011;146;53.448;10.228;2023-05-16T08:42:20;2.00;;;1.07;;
317;SDS011;146;53.448;10.228;2023-05-16T08:44:51;6.23;;;1.30;;
317;SDS011;146;53.448;10.228;2023-05-16T08:47:20;3.33;;;1.10;;
317;SDS011;146;53.448;10.228;2023-05-16T08:49:51;1.80;;;1.20;;
317;SDS011;146;53.448;10.228;2023-05-16T08:52:22;3.50;;;1.37;;
317;SDS011;146;53.448;10.228;2023-05-16T08:54:58;3.93;;;1.40;;
317;SDS011;146;53.448;10.228;2023-05-16T08:57:29;4.30;;;1.33;;
317;SDS011;146;53.448;10.228;2023-05-16T08:59:57;4.63;;;1.10;;
317;SDS011;146;53.448;10.228;2023-05-16T09:02:25;3.00;;;1.70;;
317;SDS011;146;53.448;10.228;2023-05-16T09:04:52;1.43;;;1.00;;
317;SDS011;146;53.448;10.228;2023-05-16T09:07:21;6.03;;;1.30;;
317;SDS011;146;53.448;10.228;2023-05-16T09:09:50;3.67;;;1.10;;
317;SDS011;146;53.448;10.228;2023-05-16T09:12:20;6.23;;;1.60;;
317;SDS011;146;53.448;10.228;2023-05-16T09:14:47;4.23;;;1.43;;
317;SDS011;146;53.448;10.228;2023-05-16T09:17:14;4.33;;;1.63;;
317;SDS011;146;53.448;10.228;2023-05-16T09:19:42;4.30;;;2.27;;
317;SDS011;146;53.448;10.228;2023-05-16T09:22:10;4.83;;;0.90;;
317;SDS011;146;53.448;10.228;2023-05-16T09:24:44;2.50;;;1.10;;
317;SDS011;146;53.448;10.228;2023-05-16T09:27:18;5.23;;;1.10;;
317;SDS011;146;53.448;10.228;2023-05-16T09:29:49;2.60;;;1.03;;
317;SDS011;146;53.448;10.228;2023-05-16T09:32:24;4.50;;;1.30;;
317;SDS011;146;53.448;10.228;2023-05-16T09:34:57;1.10;;;0.90;;
317;SDS011;146;53.448;10.228;2023-05-16T09:37:24;1.77;;;1.30;;
317;SDS011;146;53.448;10.228;2023-05-16T09:39:51;3.43;;;1.00;;
317;SDS011;146;53.448;10.228;2023-05-16T09:42:23;7.53;;;1.70;;
317;SDS011;146;53.448;10.228;2023-05-16T09:44:51;2.20;;;1.20;;
317;SDS011;146;53.448;10.228;2023-05-16T09:47:20;5.63;;;0.90;;
317;SDS011;146;53.448;10.228;2023-05-16T09:49:51;4.30;;;1.40;;
317;SDS011;146;53.448;10.228;2023-05-16T09:52:28;2.23;;;1.10;;
317;SDS011;146;53.448;10.228;2023-05-16T09:54:55;3.00;;;1.27;;
317;SDS011;146;53.448;10.228;2023-05-16T09:57:26;3.70;;;1.20;;
317;SDS011;146;53.448;10.228;2023-05-16T09:59:58;2.23;;;0.90;;
317;SDS011;146;53.448;10.228;2023-05-16T10:02:29;2.77;;;1.07;;
317;SDS011;146;53.448;10.228;2023-05-16T10:04:56;2.13;;;1.10;;
317;SDS011;146;53.448;10.228;2023-05-16T10:07:23;1.20;;;1.10;;
317;SDS011;146;53.448;10.228;2023-05-16T10:09:53;4.40;;;1.20;;
317;SDS011;146;53.448;10.228;2023-05-16T10:12:21;3.13;;;1.93;;
317;SDS011;146;53.448;10.228;2023-05-16T10:14:55;2.00;;;1.17;;
317;SDS011;146;53.448;10.228;2023-05-16T10:17:26;2.57;;;1.03;;
317;SDS011;146;53.448;10.228;2023-05-16T10:19:58;4.83;;;1.63;;
317;SDS011;146;53.448;10.228;2023-05-16T10:22:30;3.50;;;1.20;;
317;SDS011;146;53.448;10.228;2023-05-16T10:24:59;2.67;;;1.17;;
317;SDS011;146;53.448;10.228;2023-05-16T10:27:35;1.63;;;0.80;;
317;SDS011;146;53.448;10.228;2023-05-16T10:30:14;1.23;;;0.90;;
317;SDS011;146;53.448;10.228;2023-05-16T10:32:41;2.90;;;1.40;;
317;SDS011;146;53.448;10.228;2023-05-16T10:35:09;3.47;;;1.50;;
317;SDS011;146;53.448;10.228;2023-05-16T10:37:44;4.80;;;1.50;;
317;SDS011;146;53.448;10.228;2023-05-16T10:40:12;2.43;;;1.20;;
317;SDS011;146;53.448;10.228;2023-05-16T10:42:43;1.50;;;1.27;;
317;SDS011;146;53.448;10.228;2023-05-16T10:45:22;1.77;;;1.10;;
317;SDS011;146;53.448;10.228;2023-05-16T10:47:50;3.33;;;1.10;;
317;SDS011;146;53.448;10.228;2023-05-16T10:50:34;1.93;;;1.00;;
317;SDS011;146;53.448;10.228;2023-05-16T10:53:15;4.27;;;2.30;;
317;SDS011;146;53.448;10.228;2023-05-16T10:56:08;3.37;;;1.03;;
317;SDS011;146;53.448;10.228;2023-05-16T10:58:45;3.13;;;1.20;;
317;SDS011;146;53.448;10.228;2023-05-16T11:04:05;2.97;;;1.87;;
317;SDS011;146;53.448;10.228;2023-05-16T11:06:51;2.33;;;1.37;;
317;SDS011;146;53.448;10.228;2023-05-16T11:09:29;3.37;;;1.43;;
317;SDS011;146;53.448;10.228;2023-05-16T11:11:59;4.30;;;1.27;;
317;SDS011;146;53.448;10.228;2023-05-16T11:14:40;5.13;;;1.30;;
317;SDS011;146;53.448;10.228;2023-05-16T11:17:18;4.13;;;1.50;;
317;SDS011;146;53.448;10.228;2023-05-16T11:19:53;4.20;;;1.43;;
317;SDS011;146;53.448;10.228;2023-05-16T11:22:23;3.80;;;1.13;;
317;SDS011;146;53.448;10.228;2023-05-16T11:24:52;4.80;;;1.30;;
317;SDS011;146;53.448;10.228;2023-05-16T11:27:23;4.13;;;1.83;;
317;SDS011;146;53.448;10.228;2023-05-16T11:29:59;4.77;;;2.13;;
317;SDS011;146;53.448;10.228;2023-05-16T11:32:28;2.03;;;1.10;;
317;SDS011;146;53.448;10.228;2023-05-16T11:35:02;3.57;;;2.07;;
317;SDS011;146;53.448;10.228;2023-05-16T11:37:34;3.27;;;1.77;;
317;SDS011;146;53.448;10.228;2023-05-16T11:40:07;3.90;;;1.57;;
317;SDS011;146;53.448;10.228;2023-05-16T11:42:42;4.60;;;2.07;;
317;SDS011;146;53.448;10.228;2023-05-16T11:45:11;5.27;;;1.50;;
317;SDS011;146;53.448;10.228;2023-05-16T11:47:44;2.40;;;1.10;;
317;SDS011;146;53.448;10.228;2023-05-16T11:50:13;3.80;;;1.77;;
317;SDS011;146;53.448;10.228;2023-05-16T11:52:42;3.70;;;1.43;;
317;SDS011;146;53.448;10.228;2023-05-16T11:55:12;2.33;;;1.00;;
317;SDS011;146;53.448;10.228;2023-05-16T11:57:48;3.17;;;0.83;;
317;SDS011;146;53.448;10.228;2023-05-16T12:00:18;2.73;;;1.33;;
317;SDS011;146;53.448;10.228;2023-05-16T12:02:53;3.30;;;2.33;;
317;SDS011;146;53.448;10.228;2023-05-16T12:05:26;4.33;;;1.77;;
317;SDS011;146;53.448;10.228;2023-05-16T12:07:57;5.13;;;1.67;;
317;SDS011;146;53.448;10.228;2023-05-16T12:10:24;3.10;;;1.63;;
317;SDS011;146;53.448;10.228;2023-05-16T12:12:54;2.00;;;1.30;;
317;SDS011;146;53.448;10.228;2023-05-16T12:15:26;1.33;;;0.87;;
317;SDS011;146;53.448;10.228;2023-05-16T12:17:53;1.93;;;0.90;;
317;SDS011;146;53.448;10.228;2023-05-16T12:20:26;3.57;;;1.20;;
317;SDS011;146;53.448;10.228;2023-05-16T12:22:56;2.80;;;1.10;;
317;SDS011;146;53.448;10.228;2023-05-16T12:25:26;2.90;;;1.00;;
317;SDS011;146;53.448;10.228;2023-05-16T12:27:57;1.63;;;0.70;;
317;SDS011;146;53.448;10.228;2023-05-16T12:30:27;1.37;;;0.80;;
317;SDS011;146;53.448;10.228;2023-05-16T12:32:55;1.47;;;1.37;;
317;SDS011;146;53.448;10.228;2023-05-16T12:35:22;2.30;;;1.00;;
317;SDS011;146;53.448;10.228;2023-05-16T12:37:49;3.50;;;1.20;;
317;SDS011;146;53.448;10.228;2023-05-16T12:40:20;4.00;;;1.60;;
317;SDS011;146;53.448;10.228;2023-05-16T12:42:53;6.30;;;1.83;;
317;SDS011;146;53.448;10.228;2023-05-16T12:45:23;3.47;;;1.53;;
317;SDS011;146;53.448;10.228;2023-05-16T12:47:53;1.77;;;1.53;;
317;SDS011;146;53.448;10.228;2023-05-16T12:50:20;1.70;;;1.43;;
317;SDS011;146;53.448;10.228;2023-05-16T12:52:53;4.33;;;1.90;;
317;SDS011;146;53.448;10.228;2023-05-16T12:55:25;2.53;;;1.00;;
317;SDS011;146;53.448;10.228;2023-05-16T12:57:54;2.30;;;1.13;;
317;SDS011;146;53.448;10.228;2023-05-16T13:00:25;2.27;;;1.30;;
317;SDS011;146;53.448;10.228;2023-05-16T13:02:53;2.80;;;1.77;;
317;SDS011;146;53.448;10.228;2023-05-16T13:09:17;3.67;;;1.60;;
317;SDS011;146;53.448;10.228;2023-05-16T13:11:50;3.23;;;1.43;;
317;SDS011;146;53.448;10.228;2023-05-16T13:14:20;4.40;;;1.43;;
317;SDS011;146;53.448;10.228;2023-05-16T13:16:48;2.17;;;1.00;;
317;SDS011;146;53.448;10.228;2023-05-16T13:19:22;3.33;;;1.37;;
317;SDS011;146;53.448;10.228;2023-05-16T13:21:49;1.60;;;1.50;;
317;SDS011;146;53.448;10.228;2023-05-16T13:24:16;1.70;;;1.17;;
317;SDS011;146;53.448;10.228;2023-05-16T13:26:43;1.87;;;1.23;;
317;SDS011;146;53.448;10.228;2023-05-16T13:29:10;2.90;;;1.00;;
317;SDS011;146;53.448;10.228;2023-05-16T13:31:43;1.70;;;0.70;;
317;SDS011;146;53.448;10.228;2023-05-16T13:34:18;2.83;;;0.73;;
317;SDS011;146;53.448;10.228;2023-05-16T13:36:51;3.43;;;1.00;;
317;SDS011;146;53.448;10.228;2023-05-16T13:39:29;2.00;;;1.10;;
317;SDS011;146;53.448;10.228;2023-05-16T13:41:56;2.80;;;0.90;;
317;SDS011;146;53.448;10.228;2023-05-16T13:44:27;2.30;;;0.93;;
317;SDS011;146;53.448;10.228;2023-05-16T13:46:54;6.83;;;1.47;;
317;SDS011;146;53.448;10.228;2023-05-16T13:49:32;1.80;;;1.30;;
317;SDS011;146;53.448;10.228;2023-05-16T13:51:59;3.97;;;1.50;;
317;SDS011;146;53.448;10.228;2023-05-16T13:54:29;3.47;;;1.47;;
317;SDS011;146;53.448;10.228;2023-05-16T13:56:56;2.70;;;1.17;;
317;SDS011;146;53.448;10.228;2023-05-16T13:59:23;4.50;;;1.33;;
317;SDS011;146;53.448;10.228;2023-05-16T14:01:50;2.70;;;1.17;;
317;SDS011;146;53.448;10.228;2023-05-16T14:04:22;3.17;;;1.77;;
317;SDS011;146;53.448;10.228;2023-05-16T14:06:51;1.83;;;1.10;;
317;SDS011;146;53.448;10.228;2023-05-16T14:09:22;1.30;;;1.20;;
317;SDS011;146;53.448;10.228;2023-05-16T14:11:58;4.80;;;1.37;;
317;SDS011;146;53.448;10.228;2023-05-16T14:14:31;2.53;;;1.47;;
317;SDS011;146;53.448;10.228;2023-05-16T14:16:58;2.57;;;0.90;;
317;SDS011;146;53.448;10.228;2023-05-16T14:19:25;1.77;;;1.07;;
317;SDS011;146;53.448;10.228;2023-05-16T14:21:53;3.53;;;1.07;;
317;SDS011;146;53.448;10.228;2023-05-16T14:24:23;2.10;;;0.73;;
317;SDS011;146;53.448;10.228;2023-05-16T14:26:52;2.43;;;0.93;;
317;SDS011;146;53.448;10.228;2023-05-16T14:29:19;2.40;;;0.87;;
317;SDS011;146;53.448;10.228;2023-05-16T14:31:46;2.93;;;0.97;;
317;SDS011;146;53.448;10.228;2023-05-16T14:34:16;4.23;;;1.00;;
317;SDS011;146;53.448;10.228;2023-05-16T14:36:56;1.87;;;1.00;;
317;SDS011;146;53.448;10.228;2023-05-16T14:39:24;3.90;;;0.70;;
317;SDS011;146;53.448;10.228;2023-05-16T14:41:54;1.30;;;0.77;;
317;SDS011;146;53.448;10.228;2023-05-16T14:44:21;2.77;;;0.80;;
317;SDS011;146;53.448;10.228;2023-05-16T14:46:51;2.60;;;1.13;;
317;SDS011;146;53.448;10.228;2023-05-16T14:49:18;2.20;;;1.00;;
317;SDS011;146;53.448;10.228;2023-05-16T14:51:50;3.73;;;1.53;;
317;SDS011;146;53.448;10.228;2023-05-16T14:54:18;2.63;;;1.30;;
317;SDS011;146;53.448;10.228;2023-05-16T14:56:45;5.60;;;1.10;;
317;SDS011;146;53.448;10.228;2023-05-16T14:59:14;1.23;;;1.10;;
317;SDS011;146;53.448;10.228;2023-05-16T15:01:41;2.30;;;1.00;;
317;SDS011;146;53.448;10.228;2023-05-16T15:04:20;2.70;;;1.30;;
317;SDS011;146;53.448;10.228;2023-05-16T15:06:53;2.30;;;1.17;;
317;SDS011;146;53.448;10.228;2023-05-16T15:09:27;1.87;;;1.77;;
317;SDS011;146;53.448;10.228;2023-05-16T15:11:56;1.80;;;1.07;;
317;SDS011;146;53.448;10.228;2023-05-16T15:14:26;2.70;;;1.20;;
317;SDS011;146;53.448;10.228;2023-05-16T15:16:53;1.53;;;1.00;;
317;SDS011;146;53.448;10.228;2023-05-16T15:19:20;1.47;;;0.97;;
317;SDS011;146;53.448;10.228;2023-05-16T15:21:53;1.70;;;1.00;;
317;SDS011;146;53.448;10.228;2023-05-16T15:24:28;2.77;;;1.20;;
317;SDS011;146;53.448;10.228;2023-05-16T15:26:55;2.63;;;0.70;;
317;SDS011;146;53.448;10.228;2023-05-16T15:29:21;1.70;;;0.97;;
317;SDS011;146;53.448;10.228;2023-05-16T15:31:51;4.23;;;1.97;;
317;SDS011;146;53.448;10.228;2023-05-16T15:34:23;2.70;;;1.70;;
317;SDS011;146;53.448;10.228;2023-05-16T15:36:52;2.40;;;1.73;;
317;SDS011;146;53.448;10.228;2023-05-16T15:39:28;3.30;;;1.67;;
317;SDS011;146;53.448;10.228;2023-05-16T15:42:00;2.33;;;1.43;;
317;SDS011;146;53.448;10.228;2023-05-16T15:44:30;4.20;;;1.67;;
317;SDS011;146;53.448;10.228;2023-05-16T15:47:00;3.40;;;1.40;;
317;SDS011;146;53.448;10.228;2023-05-16T15:49:41;3.53;;;1.40;;
317;SDS011;146;53.448;10.228;2023-05-16T15:52:08;4.10;;;1.30;;
317;SDS011;146;53.448;10.228;2023-05-16T15:54:39;2.27;;;1.10;;
317;SDS011;146;53.448;10.228;2023-05-16T15:57:06;3.23;;;1.60;;